sensor_id;sensor_type;location;lat;lon;timestamp;P1;durP1;ratioP1;P2;durP2;ratioP2
39370;SDS011;25099;51.946;4.838;2023-05-10T00:01:58;46.33;;;30.73;;
39370;SDS011;25099;51.946;4.838;2023-05-10T00:04:23;43.78;;;28.92;;
39370;SDS011;25099;51.946;4.838;2023-05-10T00:06:52;45.40;;;30.80;;
39370;SDS011;25099;51.946;4.838;2023-05-10T00:09:18;46.38;;;29.02;;
39370;SDS011;25099;51.946;4.838;2023-05-10T00:11:44;43.38;;;29.45;;
39370;SDS011;25099;51.946;4.838;2023-05-10T00:14:09;48.45;;;29.65;;
39370;SDS011;25099;51.946;4.838;2023-05-10T00:16:36;39.35;;;27.27;;
39370;SDS011;25099;51.946;4.838;2023-05-10T00:19:01;47.17;;;29.20;;
39370;SDS011;25099;51.946;4.838;2023-05-10T00:21:27;43.33;;;29.40;;
39370;SDS011;25099;51.946;4.838;2023-05-10T00:23:54;41.05;;;28.27;;
39370;SDS011;25099;51.946;4.838;2023-05-10T00:26:19;43.25;;;27.67;;
39370;SDS011;25099;51.946;4.838;2023-05-10T00:28:45;45.42;;;28.30;;
39370;SDS011;25099;51.946;4.838;2023-05-10T00:31:11;48.80;;;28.30;;
39370;SDS011;25099;51.946;4.838;2023-05-10T00:33:36;45.30;;;29.00;;
39370;SDS011;25099;51.946;4.838;2023-05-10T00:36:02;42.55;;;28.17;;
39370;SDS011;25099;51.946;4.838;2023-05-10T00:38:27;45.85;;;28.77;;
39370;SDS011;25099;51.946;4.838;2023-05-10T00:40:53;50.15;;;29.17;;
39370;SDS011;25099;51.946;4.838;2023-05-10T00:43:19;47.80;;;29.55;;
39370;SDS011;25099;51.946;4.838;2023-05-10T00:45:44;54.03;;;31.27;;
39370;SDS011;25099;51.946;4.838;2023-05-10T00:48:10;49.83;;;30.60;;
39370;SDS011;25099;51.946;4.838;2023-05-10T00:50:36;56.30;;;31.35;;
39370;SDS011;25099;51.946;4.838;2023-05-10T00:53:01;45.95;;;29.92;;
39370;SDS011;25099;51.946;4.838;2023-05-10T00:55:27;49.47;;;31.80;;
39370;SDS011;25099;51.946;4.838;2023-05-10T00:57:53;52.17;;;31.27;;
39370;SDS011;25099;51.946;4.838;2023-05-10T01:00:19;50.50;;;29.35;;
39370;SDS011;25099;51.946;4.838;2023-05-10T01:02:45;49.42;;;30.42;;
39370;SDS011;25099;51.946;4.838;2023-05-10T01:05:11;46.65;;;31.52;;
39370;SDS011;25099;51.946;4.838;2023-05-10T01:07:37;45.08;;;30.30;;
39370;SDS011;25099;51.946;4.838;2023-05-10T01:10:03;47.35;;;30.05;;
39370;SDS011;25099;51.946;4.838;2023-05-10T01:12:29;43.58;;;28.30;;
39370;SDS011;25099;51.946;4.838;2023-05-10T01:14:55;44.67;;;28.13;;
39370;SDS011;25099;51.946;4.838;2023-05-10T01:17:21;47.05;;;30.05;;
39370;SDS011;25099;51.946;4.838;2023-05-10T01:19:47;39.25;;;27.90;;
39370;SDS011;25099;51.946;4.838;2023-05-10T01:33:33;45.47;;;28.40;;
39370;SDS011;25099;51.946;4.838;2023-05-10T01:38:58;47.30;;;29.08;;
39370;SDS011;25099;51.946;4.838;2023-05-10T01:46:53;41.92;;;26.05;;
39370;SDS011;25099;51.946;4.838;2023-05-10T01:49:26;39.63;;;26.15;;
39370;SDS011;25099;51.946;4.838;2023-05-10T01:52:06;43.08;;;26.45;;
39370;SDS011;25099;51.946;4.838;2023-05-10T01:54:35;47.33;;;27.27;;
39370;SDS011;25099;51.946;4.838;2023-05-10T01:57:07;41.15;;;26.30;;
39370;SDS011;25099;51.946;4.838;2023-05-10T01:59:37;44.40;;;25.75;;
39370;SDS011;25099;51.946;4.838;2023-05-10T02:02:05;43.65;;;28.23;;
39370;SDS011;25099;51.946;4.838;2023-05-10T02:04:32;37.05;;;25.25;;
39370;SDS011;25099;51.946;4.838;2023-05-10T02:07:02;46.33;;;27.33;;
39370;SDS011;25099;51.946;4.838;2023-05-10T02:09:28;48.38;;;26.35;;
39370;SDS011;25099;51.946;4.838;2023-05-10T02:11:57;41.38;;;26.52;;
39370;SDS011;25099;51.946;4.838;2023-05-10T02:14:24;41.63;;;25.63;;
39370;SDS011;25099;51.946;4.838;2023-05-10T02:16:51;40.65;;;26.58;;
39370;SDS011;25099;51.946;4.838;2023-05-10T02:19:18;42.00;;;25.65;;
39370;SDS011;25099;51.946;4.838;2023-05-10T02:21:45;43.30;;;26.05;;
39370;SDS011;25099;51.946;4.838;2023-05-10T02:24:11;43.25;;;26.60;;
39370;SDS011;25099;51.946;4.838;2023-05-10T02:26:40;41.08;;;25.17;;
39370;SDS011;25099;51.946;4.838;2023-05-10T02:29:07;34.42;;;24.30;;
39370;SDS011;25099;51.946;4.838;2023-05-10T02:31:34;48.58;;;27.13;;
39370;SDS011;25099;51.946;4.838;2023-05-10T02:34:01;45.67;;;28.17;;
39370;SDS011;25099;51.946;4.838;2023-05-10T02:36:27;47.58;;;26.92;;
39370;SDS011;25099;51.946;4.838;2023-05-10T02:38:54;48.17;;;27.83;;
39370;SDS011;25099;51.946;4.838;2023-05-10T02:41:21;47.70;;;28.42;;
39370;SDS011;25099;51.946;4.838;2023-05-10T02:43:50;51.63;;;30.88;;
39370;SDS011;25099;51.946;4.838;2023-05-10T02:46:17;44.38;;;29.85;;
39370;SDS011;25099;51.946;4.838;2023-05-10T02:48:43;56.17;;;30.17;;
39370;SDS011;25099;51.946;4.838;2023-05-10T02:51:09;43.25;;;28.73;;
39370;SDS011;25099;51.946;4.838;2023-05-10T02:53:38;57.45;;;32.00;;
39370;SDS011;25099;51.946;4.838;2023-05-10T02:56:20;54.28;;;30.40;;
39370;SDS011;25099;51.946;4.838;2023-05-10T02:58:52;54.50;;;30.75;;
39370;SDS011;25099;51.946;4.838;2023-05-10T03:01:18;57.20;;;32.22;;
39370;SDS011;25099;51.946;4.838;2023-05-10T03:03:44;50.80;;;30.48;;
39370;SDS011;25099;51.946;4.838;2023-05-10T03:06:09;53.05;;;30.33;;
39370;SDS011;25099;51.946;4.838;2023-05-10T03:08:35;54.20;;;30.25;;
39370;SDS011;25099;51.946;4.838;2023-05-10T03:14:13;54.55;;;30.38;;
39370;SDS011;25099;51.946;4.838;2023-05-10T03:16:46;51.90;;;29.17;;
39370;SDS011;25099;51.946;4.838;2023-05-10T03:19:19;52.33;;;29.27;;
39370;SDS011;25099;51.946;4.838;2023-05-10T03:21:52;49.92;;;28.23;;
39370;SDS011;25099;51.946;4.838;2023-05-10T03:24:20;46.53;;;29.52;;
39370;SDS011;25099;51.946;4.838;2023-05-10T03:26:48;47.58;;;27.77;;
39370;SDS011;25099;51.946;4.838;2023-05-10T03:29:16;50.03;;;29.98;;
39370;SDS011;25099;51.946;4.838;2023-05-10T03:31:42;49.55;;;29.75;;
39370;SDS011;25099;51.946;4.838;2023-05-10T03:34:08;51.53;;;29.30;;
39370;SDS011;25099;51.946;4.838;2023-05-10T03:36:33;50.78;;;29.58;;
39370;SDS011;25099;51.946;4.838;2023-05-10T03:38:59;48.13;;;29.88;;
39370;SDS011;25099;51.946;4.838;2023-05-10T03:41:24;50.30;;;29.42;;
39370;SDS011;25099;51.946;4.838;2023-05-10T03:43:50;47.70;;;29.50;;
39370;SDS011;25099;51.946;4.838;2023-05-10T03:46:16;51.50;;;30.80;;
39370;SDS011;25099;51.946;4.838;2023-05-10T03:48:42;48.58;;;30.50;;
39370;SDS011;25099;51.946;4.838;2023-05-10T03:51:07;54.92;;;31.35;;
39370;SDS011;25099;51.946;4.838;2023-05-10T03:53:33;49.33;;;30.27;;
39370;SDS011;25099;51.946;4.838;2023-05-10T03:55:58;52.00;;;29.60;;
39370;SDS011;25099;51.946;4.838;2023-05-10T03:58:24;51.13;;;29.73;;
39370;SDS011;25099;51.946;4.838;2023-05-10T04:00:50;49.95;;;28.17;;
39370;SDS011;25099;51.946;4.838;2023-05-10T04:03:16;41.78;;;27.20;;
39370;SDS011;25099;51.946;4.838;2023-05-10T04:05:42;39.88;;;24.85;;
39370;SDS011;25099;51.946;4.838;2023-05-10T04:08:08;36.20;;;24.27;;
39370;SDS011;25099;51.946;4.838;2023-05-10T04:10:34;41.20;;;23.80;;
39370;SDS011;25099;51.946;4.838;2023-05-10T04:12:59;41.95;;;25.08;;
39370;SDS011;25099;51.946;4.838;2023-05-10T04:15:25;38.63;;;25.25;;
39370;SDS011;25099;51.946;4.838;2023-05-10T04:17:51;40.88;;;26.77;;
39370;SDS011;25099;51.946;4.838;2023-05-10T04:20:16;41.55;;;26.02;;
39370;SDS011;25099;51.946;4.838;2023-05-10T04:22:42;44.55;;;27.10;;
39370;SDS011;25099;51.946;4.838;2023-05-10T04:25:08;43.70;;;27.90;;
39370;SDS011;25099;51.946;4.838;2023-05-10T04:27:33;45.38;;;30.52;;
39370;SDS011;25099;51.946;4.838;2023-05-10T04:29:59;44.80;;;31.63;;
39370;SDS011;25099;51.946;4.838;2023-05-10T04:32:25;55.58;;;33.60;;
39370;SDS011;25099;51.946;4.838;2023-05-10T04:34:50;51.15;;;32.05;;
39370;SDS011;25099;51.946;4.838;2023-05-10T04:37:16;46.80;;;31.23;;
39370;SDS011;25099;51.946;4.838;2023-05-10T04:39:42;41.80;;;27.52;;
39370;SDS011;25099;51.946;4.838;2023-05-10T04:42:07;50.15;;;29.77;;
39370;SDS011;25099;51.946;4.838;2023-05-10T04:44:33;47.42;;;29.83;;
39370;SDS011;25099;51.946;4.838;2023-05-10T04:46:59;51.90;;;33.35;;
39370;SDS011;25099;51.946;4.838;2023-05-10T04:49:24;56.70;;;33.33;;
39370;SDS011;25099;51.946;4.838;2023-05-10T04:51:50;56.67;;;32.20;;
39370;SDS011;25099;51.946;4.838;2023-05-10T04:54:16;53.97;;;32.22;;
39370;SDS011;25099;51.946;4.838;2023-05-10T04:56:41;41.22;;;29.52;;
39370;SDS011;25099;51.946;4.838;2023-05-10T04:59:07;47.67;;;30.98;;
39370;SDS011;25099;51.946;4.838;2023-05-10T05:01:32;53.08;;;35.25;;
39370;SDS011;25099;51.946;4.838;2023-05-10T05:03:58;52.50;;;35.22;;
39370;SDS011;25099;51.946;4.838;2023-05-10T05:06:24;48.63;;;35.72;;
39370;SDS011;25099;51.946;4.838;2023-05-10T05:08:50;51.80;;;38.10;;
39370;SDS011;25099;51.946;4.838;2023-05-10T05:11:16;52.95;;;38.03;;
39370;SDS011;25099;51.946;4.838;2023-05-10T05:13:42;56.53;;;37.08;;
39370;SDS011;25099;51.946;4.838;2023-05-10T05:16:08;57.22;;;36.42;;
39370;SDS011;25099;51.946;4.838;2023-05-10T05:18:33;50.95;;;36.03;;
39370;SDS011;25099;51.946;4.838;2023-05-10T05:20:59;53.83;;;36.00;;
39370;SDS011;25099;51.946;4.838;2023-05-10T05:23:25;56.97;;;36.42;;
39370;SDS011;25099;51.946;4.838;2023-05-10T05:25:51;49.88;;;36.28;;
39370;SDS011;25099;51.946;4.838;2023-05-10T05:28:17;55.47;;;37.53;;
39370;SDS011;25099;51.946;4.838;2023-05-10T05:30:44;51.40;;;34.60;;
39370;SDS011;25099;51.946;4.838;2023-05-10T05:33:09;42.50;;;31.73;;
39370;SDS011;25099;51.946;4.838;2023-05-10T05:35:35;51.83;;;33.50;;
39370;SDS011;25099;51.946;4.838;2023-05-10T05:38:01;43.55;;;33.42;;
39370;SDS011;25099;51.946;4.838;2023-05-10T05:40:26;56.47;;;38.42;;
39370;SDS011;25099;51.946;4.838;2023-05-10T05:42:52;54.35;;;36.20;;
39370;SDS011;25099;51.946;4.838;2023-05-10T05:45:18;52.75;;;36.58;;
39370;SDS011;25099;51.946;4.838;2023-05-10T05:47:43;46.78;;;33.88;;
39370;SDS011;25099;51.946;4.838;2023-05-10T05:50:09;47.65;;;33.35;;
39370;SDS011;25099;51.946;4.838;2023-05-10T05:52:34;42.72;;;29.65;;
39370;SDS011;25099;51.946;4.838;2023-05-10T05:55:00;43.10;;;29.60;;
39370;SDS011;25099;51.946;4.838;2023-05-10T05:57:26;37.92;;;26.80;;
39370;SDS011;25099;51.946;4.838;2023-05-10T05:59:52;40.30;;;26.70;;
39370;SDS011;25099;51.946;4.838;2023-05-10T06:02:17;42.55;;;27.27;;
39370;SDS011;25099;51.946;4.838;2023-05-10T06:04:43;57.60;;;31.90;;
39370;SDS011;25099;51.946;4.838;2023-05-10T06:07:08;56.75;;;30.80;;
39370;SDS011;25099;51.946;4.838;2023-05-10T06:09:34;62.63;;;34.22;;
39370;SDS011;25099;51.946;4.838;2023-05-10T06:12:00;61.50;;;32.25;;
39370;SDS011;25099;51.946;4.838;2023-05-10T06:14:26;47.33;;;28.98;;
39370;SDS011;25099;51.946;4.838;2023-05-10T06:16:52;47.20;;;28.52;;
39370;SDS011;25099;51.946;4.838;2023-05-10T06:19:17;48.15;;;30.48;;
39370;SDS011;25099;51.946;4.838;2023-05-10T06:21:43;43.95;;;27.92;;
39370;SDS011;25099;51.946;4.838;2023-05-10T06:24:08;46.63;;;28.45;;
39370;SDS011;25099;51.946;4.838;2023-05-10T06:26:34;42.72;;;25.73;;
39370;SDS011;25099;51.946;4.838;2023-05-10T06:29:00;39.13;;;26.40;;
39370;SDS011;25099;51.946;4.838;2023-05-10T06:31:26;29.65;;;22.65;;
39370;SDS011;25099;51.946;4.838;2023-05-10T06:33:51;29.42;;;20.30;;
39370;SDS011;25099;51.946;4.838;2023-05-10T06:36:17;31.88;;;19.88;;
39370;SDS011;25099;51.946;4.838;2023-05-10T06:38:42;22.52;;;17.27;;
39370;SDS011;25099;51.946;4.838;2023-05-10T06:41:08;23.33;;;16.30;;
39370;SDS011;25099;51.946;4.838;2023-05-10T06:43:34;21.13;;;15.65;;
39370;SDS011;25099;51.946;4.838;2023-05-10T06:45:59;19.10;;;13.60;;
39370;SDS011;25099;51.946;4.838;2023-05-10T06:48:25;15.18;;;12.25;;
39370;SDS011;25099;51.946;4.838;2023-05-10T06:50:50;16.13;;;11.70;;
39370;SDS011;25099;51.946;4.838;2023-05-10T06:53:16;11.50;;;9.93;;
39370;SDS011;25099;51.946;4.838;2023-05-10T06:55:41;12.20;;;10.18;;
39370;SDS011;25099;51.946;4.838;2023-05-10T06:58:07;9.73;;;8.68;;
39370;SDS011;25099;51.946;4.838;2023-05-10T07:00:32;10.35;;;9.35;;
39370;SDS011;25099;51.946;4.838;2023-05-10T07:02:58;13.85;;;9.52;;
39370;SDS011;25099;51.946;4.838;2023-05-10T07:05:24;10.55;;;9.55;;
39370;SDS011;25099;51.946;4.838;2023-05-10T07:07:49;10.63;;;9.52;;
39370;SDS011;25099;51.946;4.838;2023-05-10T07:10:15;9.65;;;8.50;;
39370;SDS011;25099;51.946;4.838;2023-05-10T07:12:40;7.65;;;6.85;;
39370;SDS011;25099;51.946;4.838;2023-05-10T07:15:06;9.55;;;7.55;;
39370;SDS011;25099;51.946;4.838;2023-05-10T07:17:33;7.22;;;6.22;;
39370;SDS011;25099;51.946;4.838;2023-05-10T07:19:59;6.05;;;5.55;;
39370;SDS011;25099;51.946;4.838;2023-05-10T07:22:26;7.53;;;5.90;;
39370;SDS011;25099;51.946;4.838;2023-05-10T07:24:51;6.50;;;5.88;;
39370;SDS011;25099;51.946;4.838;2023-05-10T07:27:17;6.22;;;5.28;;
39370;SDS011;25099;51.946;4.838;2023-05-10T07:29:42;5.45;;;4.95;;
39370;SDS011;25099;51.946;4.838;2023-05-10T07:32:08;5.80;;;5.07;;
39370;SDS011;25099;51.946;4.838;2023-05-10T07:34:34;5.65;;;5.15;;
39370;SDS011;25099;51.946;4.838;2023-05-10T07:36:59;5.70;;;5.10;;
39370;SDS011;25099;51.946;4.838;2023-05-10T07:39:26;5.15;;;4.65;;
39370;SDS011;25099;51.946;4.838;2023-05-10T07:41:53;4.28;;;3.97;;
39370;SDS011;25099;51.946;4.838;2023-05-10T07:44:19;5.30;;;4.90;;
39370;SDS011;25099;51.946;4.838;2023-05-10T07:46:45;6.90;;;4.22;;
39370;SDS011;25099;51.946;4.838;2023-05-10T07:49:11;5.25;;;4.75;;
39370;SDS011;25099;51.946;4.838;2023-05-10T07:51:37;5.82;;;4.45;;
39370;SDS011;25099;51.946;4.838;2023-05-10T07:54:02;6.15;;;5.55;;
39370;SDS011;25099;51.946;4.838;2023-05-10T07:56:31;5.78;;;5.22;;
39370;SDS011;25099;51.946;4.838;2023-05-10T07:58:57;7.00;;;6.40;;
39370;SDS011;25099;51.946;4.838;2023-05-10T08:01:24;6.07;;;5.57;;
39370;SDS011;25099;51.946;4.838;2023-05-10T08:03:50;7.55;;;5.88;;
39370;SDS011;25099;51.946;4.838;2023-05-10T08:06:17;7.40;;;6.70;;
39370;SDS011;25099;51.946;4.838;2023-05-10T08:08:43;7.90;;;7.15;;
39370;SDS011;25099;51.946;4.838;2023-05-10T08:11:10;8.38;;;7.22;;
39370;SDS011;25099;51.946;4.838;2023-05-10T08:13:36;8.57;;;7.72;;
39370;SDS011;25099;51.946;4.838;2023-05-10T08:16:01;8.77;;;7.88;;
39370;SDS011;25099;51.946;4.838;2023-05-10T08:18:27;8.05;;;7.28;;
39370;SDS011;25099;51.946;4.838;2023-05-10T08:20:53;8.10;;;7.30;;
39370;SDS011;25099;51.946;4.838;2023-05-10T08:23:18;7.60;;;6.90;;
39370;SDS011;25099;51.946;4.838;2023-05-10T08:25:44;8.52;;;7.57;;
39370;SDS011;25099;51.946;4.838;2023-05-10T08:28:09;8.77;;;7.80;;
39370;SDS011;25099;51.946;4.838;2023-05-10T08:30:35;8.18;;;7.38;;
39370;SDS011;25099;51.946;4.838;2023-05-10T08:33:01;8.32;;;7.60;;
39370;SDS011;25099;51.946;4.838;2023-05-10T08:35:26;9.02;;;7.95;;
39370;SDS011;25099;51.946;4.838;2023-05-10T08:37:52;9.98;;;8.32;;
39370;SDS011;25099;51.946;4.838;2023-05-10T08:40:18;12.93;;;9.00;;
39370;SDS011;25099;51.946;4.838;2023-05-10T08:42:48;10.85;;;7.38;;
39370;SDS011;25099;51.946;4.838;2023-05-10T08:45:18;7.85;;;6.30;;
39370;SDS011;25099;51.946;4.838;2023-05-10T08:47:46;16.17;;;7.30;;
39370;SDS011;25099;51.946;4.838;2023-05-10T08:50:12;9.57;;;6.95;;
39370;SDS011;25099;51.946;4.838;2023-05-10T08:52:39;8.27;;;7.47;;
39370;SDS011;25099;51.946;4.838;2023-05-10T08:55:06;11.48;;;7.13;;
39370;SDS011;25099;51.946;4.838;2023-05-10T08:57:32;14.35;;;8.35;;
39370;SDS011;25099;51.946;4.838;2023-05-10T08:59:57;9.55;;;7.85;;
39370;SDS011;25099;51.946;4.838;2023-05-10T09:02:25;11.25;;;8.30;;
39370;SDS011;25099;51.946;4.838;2023-05-10T09:04:51;9.88;;;8.05;;
39370;SDS011;25099;51.946;4.838;2023-05-10T09:07:17;12.38;;;9.50;;
39370;SDS011;25099;51.946;4.838;2023-05-10T09:09:44;16.83;;;11.23;;
39370;SDS011;25099;51.946;4.838;2023-05-10T09:12:11;19.58;;;12.73;;
39370;SDS011;25099;51.946;4.838;2023-05-10T09:14:38;24.10;;;16.13;;
39370;SDS011;25099;51.946;4.838;2023-05-10T09:17:04;21.70;;;16.52;;
39370;SDS011;25099;51.946;4.838;2023-05-10T09:19:30;19.30;;;15.25;;
39370;SDS011;25099;51.946;4.838;2023-05-10T09:21:55;22.33;;;16.83;;
39370;SDS011;25099;51.946;4.838;2023-05-10T09:24:24;24.27;;;16.45;;
39370;SDS011;25099;51.946;4.838;2023-05-10T09:26:51;24.70;;;17.27;;
39370;SDS011;25099;51.946;4.838;2023-05-10T09:29:16;25.05;;;16.90;;
39370;SDS011;25099;51.946;4.838;2023-05-10T09:31:43;19.80;;;13.05;;
39370;SDS011;25099;51.946;4.838;2023-05-10T09:36:52;18.67;;;12.45;;
39370;SDS011;25099;51.946;4.838;2023-05-10T09:39:18;18.60;;;14.85;;
39370;SDS011;25099;51.946;4.838;2023-05-10T09:41:44;16.38;;;14.18;;
39370;SDS011;25099;51.946;4.838;2023-05-10T09:44:10;19.00;;;13.35;;
39370;SDS011;25099;51.946;4.838;2023-05-10T09:46:36;20.05;;;14.05;;
39370;SDS011;25099;51.946;4.838;2023-05-10T09:49:02;14.38;;;12.45;;
39370;SDS011;25099;51.946;4.838;2023-05-10T09:51:27;13.32;;;11.65;;
39370;SDS011;25099;51.946;4.838;2023-05-10T09:56:38;12.55;;;11.32;;
39370;SDS011;25099;51.946;4.838;2023-05-10T09:59:05;12.75;;;11.43;;
39370;SDS011;25099;51.946;4.838;2023-05-10T10:01:35;15.68;;;10.00;;
39370;SDS011;25099;51.946;4.838;2023-05-10T10:04:05;13.73;;;10.13;;
39370;SDS011;25099;51.946;4.838;2023-05-10T10:06:37;8.63;;;7.90;;
39370;SDS011;25099;51.946;4.838;2023-05-10T10:09:04;10.68;;;9.65;;
39370;SDS011;25099;51.946;4.838;2023-05-10T10:11:34;11.73;;;10.20;;
39370;SDS011;25099;51.946;4.838;2023-05-10T10:14:01;12.02;;;10.93;;
39370;SDS011;25099;51.946;4.838;2023-05-10T10:16:28;15.82;;;11.60;;
39370;SDS011;25099;51.946;4.838;2023-05-10T10:18:54;10.73;;;9.85;;
39370;SDS011;25099;51.946;4.838;2023-05-10T10:21:20;9.75;;;8.85;;
39370;SDS011;25099;51.946;4.838;2023-05-10T10:23:47;10.57;;;9.73;;
39370;SDS011;25099;51.946;4.838;2023-05-10T10:26:13;8.98;;;8.10;;
39370;SDS011;25099;51.946;4.838;2023-05-10T10:31:39;9.30;;;8.30;;
39370;SDS011;25099;51.946;4.838;2023-05-10T10:34:10;7.93;;;7.22;;
39370;SDS011;25099;51.946;4.838;2023-05-10T10:36:47;8.20;;;7.45;;
39370;SDS011;25099;51.946;4.838;2023-05-10T10:39:13;7.38;;;6.78;;
39370;SDS011;25099;51.946;4.838;2023-05-10T10:41:40;7.63;;;7.05;;
39370;SDS011;25099;51.946;4.838;2023-05-10T10:49:27;10.45;;;9.43;;
39370;SDS011;25099;51.946;4.838;2023-05-10T10:54:38;11.20;;;10.40;;
39370;SDS011;25099;51.946;4.838;2023-05-10T10:57:13;13.23;;;12.13;;
39370;SDS011;25099;51.946;4.838;2023-05-10T10:59:42;13.88;;;11.38;;
39370;SDS011;25099;51.946;4.838;2023-05-10T11:02:32;16.02;;;11.77;;
39370;SDS011;25099;51.946;4.838;2023-05-10T11:05:24;12.77;;;11.57;;
39370;SDS011;25099;51.946;4.838;2023-05-10T11:07:54;11.15;;;10.05;;
39370;SDS011;25099;51.946;4.838;2023-05-10T11:10:21;12.07;;;10.98;;
39370;SDS011;25099;51.946;4.838;2023-05-10T11:12:51;14.43;;;11.23;;
39370;SDS011;25099;51.946;4.838;2023-05-10T11:15:18;12.75;;;11.65;;
39370;SDS011;25099;51.946;4.838;2023-05-10T11:17:45;11.05;;;10.25;;
39370;SDS011;25099;51.946;4.838;2023-05-10T11:20:15;12.30;;;11.25;;
39370;SDS011;25099;51.946;4.838;2023-05-10T11:22:53;13.32;;;11.05;;
39370;SDS011;25099;51.946;4.838;2023-05-10T11:25:19;12.02;;;10.88;;
39370;SDS011;25099;51.946;4.838;2023-05-10T11:27:51;11.45;;;10.55;;
39370;SDS011;25099;51.946;4.838;2023-05-10T11:30:16;12.02;;;10.90;;
39370;SDS011;25099;51.946;4.838;2023-05-10T11:32:42;11.10;;;10.15;;
39370;SDS011;25099;51.946;4.838;2023-05-10T11:35:09;10.70;;;9.82;;
39370;SDS011;25099;51.946;4.838;2023-05-10T11:37:36;10.48;;;9.25;;
39370;SDS011;25099;51.946;4.838;2023-05-10T11:40:06;11.30;;;10.30;;
39370;SDS011;25099;51.946;4.838;2023-05-10T11:42:34;10.93;;;9.77;;
39370;SDS011;25099;51.946;4.838;2023-05-10T11:45:02;12.02;;;10.80;;
39370;SDS011;25099;51.946;4.838;2023-05-10T11:47:27;11.23;;;10.18;;
39370;SDS011;25099;51.946;4.838;2023-05-10T11:49:53;12.05;;;10.85;;
39370;SDS011;25099;51.946;4.838;2023-05-10T11:52:18;12.48;;;11.18;;
39370;SDS011;25099;51.946;4.838;2023-05-10T11:54:51;14.07;;;10.80;;
39370;SDS011;25099;51.946;4.838;2023-05-10T11:57:18;12.63;;;11.32;;
39370;SDS011;25099;51.946;4.838;2023-05-10T11:59:46;13.90;;;11.35;;
39370;SDS011;25099;51.946;4.838;2023-05-10T12:02:14;12.85;;;11.32;;
39370;SDS011;25099;51.946;4.838;2023-05-10T12:04:40;16.60;;;12.70;;
39370;SDS011;25099;51.946;4.838;2023-05-10T12:07:06;18.00;;;13.63;;
39370;SDS011;25099;51.946;4.838;2023-05-10T12:09:32;15.60;;;14.10;;
39370;SDS011;25099;51.946;4.838;2023-05-10T12:11:57;16.65;;;14.07;;
39370;SDS011;25099;51.946;4.838;2023-05-10T12:14:23;15.38;;;13.90;;
39370;SDS011;25099;51.946;4.838;2023-05-10T12:16:49;14.57;;;13.20;;
39370;SDS011;25099;51.946;4.838;2023-05-10T12:19:18;11.77;;;9.85;;
39370;SDS011;25099;51.946;4.838;2023-05-10T12:21:45;10.00;;;7.45;;
39370;SDS011;25099;51.946;4.838;2023-05-10T12:24:10;12.05;;;7.38;;
39370;SDS011;25099;51.946;4.838;2023-05-10T12:26:37;8.32;;;7.45;;
39370;SDS011;25099;51.946;4.838;2023-05-10T12:29:15;8.75;;;7.80;;
39370;SDS011;25099;51.946;4.838;2023-05-10T12:31:58;8.93;;;8.05;;
39370;SDS011;25099;51.946;4.838;2023-05-10T12:34:25;9.40;;;7.50;;
39370;SDS011;25099;51.946;4.838;2023-05-10T12:36:52;8.27;;;7.53;;
39370;SDS011;25099;51.946;4.838;2023-05-10T12:39:18;8.43;;;7.65;;
39370;SDS011;25099;51.946;4.838;2023-05-10T12:41:44;10.43;;;7.88;;
39370;SDS011;25099;51.946;4.838;2023-05-10T12:44:09;9.55;;;7.75;;
39370;SDS011;25099;51.946;4.838;2023-05-10T12:46:35;11.68;;;9.07;;
39370;SDS011;25099;51.946;4.838;2023-05-10T12:49:01;10.23;;;9.23;;
39370;SDS011;25099;51.946;4.838;2023-05-10T12:51:26;11.50;;;10.55;;
39370;SDS011;25099;51.946;4.838;2023-05-10T12:53:52;12.25;;;10.85;;
39370;SDS011;25099;51.946;4.838;2023-05-10T12:56:17;12.77;;;11.48;;
39370;SDS011;25099;51.946;4.838;2023-05-10T12:58:43;11.13;;;9.75;;
39370;SDS011;25099;51.946;4.838;2023-05-10T13:01:12;10.52;;;8.93;;
39370;SDS011;25099;51.946;4.838;2023-05-10T13:03:41;10.80;;;9.68;;
39370;SDS011;25099;51.946;4.838;2023-05-10T13:06:08;9.85;;;8.95;;
39370;SDS011;25099;51.946;4.838;2023-05-10T13:08:33;9.20;;;8.40;;
39370;SDS011;25099;51.946;4.838;2023-05-10T13:11:02;10.73;;;8.82;;
39370;SDS011;25099;51.946;4.838;2023-05-10T13:13:28;10.18;;;9.15;;
39370;SDS011;25099;51.946;4.838;2023-05-10T13:15:53;10.20;;;9.10;;
39370;SDS011;25099;51.946;4.838;2023-05-10T13:18:19;11.95;;;10.73;;
39370;SDS011;25099;51.946;4.838;2023-05-10T13:20:45;13.15;;;11.85;;
39370;SDS011;25099;51.946;4.838;2023-05-10T13:23:10;11.90;;;10.65;;
39370;SDS011;25099;51.946;4.838;2023-05-10T13:25:36;11.52;;;9.23;;
39370;SDS011;25099;51.946;4.838;2023-05-10T13:28:01;9.70;;;8.80;;
39370;SDS011;25099;51.946;4.838;2023-05-10T13:30:27;11.18;;;9.32;;
39370;SDS011;25099;51.946;4.838;2023-05-10T13:32:53;12.00;;;8.82;;
39370;SDS011;25099;51.946;4.838;2023-05-10T13:35:19;13.02;;;8.00;;
39370;SDS011;25099;51.946;4.838;2023-05-10T13:37:45;9.10;;;7.03;;
39370;SDS011;25099;51.946;4.838;2023-05-10T13:40:10;15.00;;;9.65;;
39370;SDS011;25099;51.946;4.838;2023-05-10T13:42:36;10.50;;;8.27;;
39370;SDS011;25099;51.946;4.838;2023-05-10T13:45:02;9.75;;;8.40;;
39370;SDS011;25099;51.946;4.838;2023-05-10T13:47:28;11.05;;;8.60;;
39370;SDS011;25099;51.946;4.838;2023-05-10T13:49:54;12.00;;;7.85;;
39370;SDS011;25099;51.946;4.838;2023-05-10T13:52:19;7.10;;;6.10;;
39370;SDS011;25099;51.946;4.838;2023-05-10T13:54:45;9.85;;;7.97;;
39370;SDS011;25099;51.946;4.838;2023-05-10T13:57:11;18.38;;;8.95;;
39370;SDS011;25099;51.946;4.838;2023-05-10T13:59:38;12.43;;;8.48;;
39370;SDS011;25099;51.946;4.838;2023-05-10T14:02:04;12.88;;;8.02;;
39370;SDS011;25099;51.946;4.838;2023-05-10T14:04:31;13.75;;;9.05;;
39370;SDS011;25099;51.946;4.838;2023-05-10T14:06:56;13.75;;;9.35;;
39370;SDS011;25099;51.946;4.838;2023-05-10T14:09:22;18.73;;;13.15;;
39370;SDS011;25099;51.946;4.838;2023-05-10T14:11:48;18.00;;;12.52;;
39370;SDS011;25099;51.946;4.838;2023-05-10T14:14:13;12.68;;;9.00;;
39370;SDS011;25099;51.946;4.838;2023-05-10T14:16:43;12.95;;;9.48;;
39370;SDS011;25099;51.946;4.838;2023-05-10T14:19:09;10.20;;;9.07;;
39370;SDS011;25099;51.946;4.838;2023-05-10T14:21:35;11.32;;;9.32;;
39370;SDS011;25099;51.946;4.838;2023-05-10T14:24:00;14.02;;;8.68;;
39370;SDS011;25099;51.946;4.838;2023-05-10T14:26:26;14.23;;;12.45;;
39370;SDS011;25099;51.946;4.838;2023-05-10T14:28:52;13.38;;;11.60;;
39370;SDS011;25099;51.946;4.838;2023-05-10T14:31:18;12.77;;;11.23;;
39370;SDS011;25099;51.946;4.838;2023-05-10T14:33:45;11.93;;;10.13;;
39370;SDS011;25099;51.946;4.838;2023-05-10T14:36:11;10.35;;;9.27;;
39370;SDS011;25099;51.946;4.838;2023-05-10T14:38:37;16.65;;;13.02;;
39370;SDS011;25099;51.946;4.838;2023-05-10T14:41:02;19.73;;;13.98;;
39370;SDS011;25099;51.946;4.838;2023-05-10T14:43:28;15.40;;;12.55;;
39370;SDS011;25099;51.946;4.838;2023-05-10T14:45:54;13.55;;;10.10;;
39370;SDS011;25099;51.946;4.838;2023-05-10T14:48:20;10.73;;;9.25;;
39370;SDS011;25099;51.946;4.838;2023-05-10T14:50:46;11.55;;;8.40;;
39370;SDS011;25099;51.946;4.838;2023-05-10T14:53:12;17.02;;;14.02;;
39370;SDS011;25099;51.946;4.838;2023-05-10T14:55:37;19.25;;;13.13;;
39370;SDS011;25099;51.946;4.838;2023-05-10T14:58:04;14.10;;;12.32;;
39370;SDS011;25099;51.946;4.838;2023-05-10T15:00:30;14.27;;;9.13;;
39370;SDS011;25099;51.946;4.838;2023-05-10T15:02:56;11.43;;;9.57;;
39370;SDS011;25099;51.946;4.838;2023-05-10T15:05:22;15.02;;;9.23;;